createdAt,value
2023-04-17T00:02:17.037Z,102651.97
2023-04-17T00:04:47.554Z,102652.06
2023-04-17T00:07:17.608Z,102662.47
2023-04-17T00:09:47.426Z,102663.16
2023-04-17T00:12:17.266Z,102657.59
2023-04-17T00:14:47.111Z,102658.50
2023-04-17T00:17:19.478Z,102660.28
2023-04-17T00:19:50.402Z,102657.38
2023-04-17T00:22:20.250Z,102660.00
2023-04-17T00:24:50.100Z,102665.34
2023-04-17T00:27:19.931Z,102668.84
2023-04-17T00:29:49.814Z,102666.94
2023-04-17T00:32:22.291Z,102667.50
2023-04-17T00:34:55.772Z,102665.78
2023-04-17T00:37:25.750Z,102667.38
2023-04-17T00:39:55.652Z,102666.25
2023-04-17T00:42:25.826Z,102665.09
2023-04-17T00:44:57.998Z,102671.28
2023-04-17T00:47:30.804Z,102668.75
2023-04-17T00:50:01.537Z,102666.94
2023-04-17T00:52:32.759Z,102676.97
2023-04-17T00:55:02.868Z,102663.44
2023-04-17T00:57:32.971Z,102666.25
2023-04-17T01:00:03.184Z,102673.09
2023-04-17T01:02:35.725Z,102671.09
2023-04-17T01:05:06.034Z,102662.19
2023-04-17T01:07:35.893Z,102668.34
2023-04-17T01:10:06.043Z,102663.56
2023-04-17T01:12:36.150Z,102671.50
2023-04-17T01:15:06.746Z,102666.47
2023-04-17T01:17:39.233Z,102667.28
2023-04-17T01:20:11.169Z,102669.69
2023-04-17T01:22:41.027Z,102677.22
2023-04-17T01:25:17.427Z,102675.97
2023-04-17T01:27:47.471Z,102670.53
2023-04-17T01:30:17.827Z,102669.16
2023-04-17T01:32:47.837Z,102673.09
2023-04-17T01:35:17.753Z,102671.63
2023-04-17T01:37:47.606Z,102677.56
2023-04-17T01:40:20.194Z,102679.94
2023-04-17T01:42:50.086Z,102681.56
2023-04-17T01:45:19.894Z,102681.09
2023-04-17T01:47:52.526Z,102677.69
2023-04-17T01:50:22.642Z,102678.59
2023-04-17T01:52:52.483Z,102687.25
2023-04-17T01:55:24.910Z,102687.25
2023-04-17T01:57:54.937Z,102683.50
2023-04-17T02:00:25.543Z,102688.63
2023-04-17T02:02:55.450Z,102694.19
2023-04-17T02:05:25.312Z,102690.00
2023-04-17T02:07:55.079Z,102689.16
2023-04-17T02:10:28.108Z,102697.03
2023-04-17T02:12:57.889Z,102695.00
2023-04-17T02:15:27.812Z,102695.22
2023-04-17T02:17:57.689Z,102691.78
2023-04-17T02:20:27.794Z,102688.63
2023-04-17T02:22:57.801Z,102685.44
2023-04-17T02:25:30.398Z,102680.41
2023-04-17T02:28:00.196Z,102673.56
2023-04-17T02:30:30.976Z,102678.13
2023-04-17T02:33:02.249Z,102672.19
2023-04-17T02:35:35.334Z,102672.28
2023-04-17T02:38:05.329Z,102675.94
2023-04-17T02:40:37.767Z,102671.03
2023-04-17T02:43:09.991Z,102679.13
2023-04-17T02:45:39.808Z,102676.72
2023-04-17T02:48:09.935Z,102678.78
2023-04-17T02:50:39.732Z,102682.44
2023-04-17T02:53:10.647Z,102676.38
2023-04-17T02:55:43.103Z,102679.09
2023-04-17T02:58:13.594Z,102677.41
2023-04-17T03:00:43.688Z,102670.66
2023-04-17T03:03:13.807Z,102670.75
2023-04-17T03:05:43.908Z,102669.84
2023-04-17T03:08:14.509Z,102668.06
2023-04-17T03:10:46.908Z,102669.84
2023-04-17T03:13:16.696Z,102672.59
2023-04-17T03:15:46.548Z,102673.38
2023-04-17T03:18:19.432Z,102669.72
2023-04-17T03:20:49.244Z,102674.00
2023-04-17T03:23:19.027Z,102682.63
2023-04-17T03:25:51.531Z,102670.44
2023-04-17T03:28:22.234Z,102682.63
2023-04-17T03:30:52.207Z,102681.53
2023-04-17T03:33:22.874Z,102681.41
2023-04-17T03:35:52.670Z,102685.53
2023-04-17T03:38:23.300Z,102680.84
2023-04-17T03:40:55.728Z,102689.16
2023-04-17T03:43:25.537Z,102686.31
2023-04-17T03:45:55.392Z,102690.53
2023-04-17T03:48:25.228Z,102694.88
2023-04-17T03:50:55.308Z,102685.28
2023-04-17T03:53:25.169Z,102693.16
2023-04-17T03:55:57.591Z,102679.84
2023-04-17T03:58:28.225Z,102689.50
2023-04-17T04:00:59.203Z,102686.06
2023-04-17T04:03:29.276Z,102699.09
2023-04-17T04:05:59.462Z,102696.34
2023-04-17T04:08:29.414Z,102707.66
2023-04-17T04:11:03.402Z,102701.50
2023-04-17T04:13:34.130Z,102698.97
2023-04-17T04:16:03.997Z,102703.53
2023-04-17T04:18:33.881Z,102702.75
2023-04-17T04:21:03.694Z,102708.88
2023-04-17T04:23:33.965Z,102711.72
2023-04-17T04:26:06.369Z,102708.41
2023-04-17T04:28:38.603Z,102715.47
2023-04-17T04:31:10.086Z,102719.72
2023-04-17T04:33:45.836Z,102715.16
2023-04-17T04:36:21.126Z,102717.09
2023-04-17T04:38:50.955Z,102713.88
2023-04-17T04:41:25.406Z,102729.97
2023-04-17T04:43:55.233Z,102717.09
2023-04-17T04:46:25.174Z,102711.97
2023-04-17T04:48:54.969Z,102716.41
2023-04-17T04:51:24.810Z,102718.31
2023-04-17T04:53:56.156Z,102713.69
2023-04-17T04:56:30.395Z,102723.03
2023-04-17T04:59:01.509Z,102719.38
2023-04-17T05:01:31.427Z,102721.66
2023-04-17T05:04:01.526Z,102728.50
2023-04-17T05:06:31.694Z,102728.50
2023-04-17T05:09:01.534Z,102732.91
2023-04-17T05:11:34.027Z,102736.56
2023-04-17T05:14:03.927Z,102740.34
2023-04-17T05:16:33.856Z,102745.03
2023-04-17T05:19:03.770Z,102744.47
2023-04-17T05:21:34.162Z,102745.56
2023-04-17T05:24:04.007Z,102754.81
2023-04-17T05:26:36.479Z,102754.34
2023-04-17T05:29:06.473Z,102751.16
2023-04-17T05:31:37.381Z,102759.22
2023-04-17T05:34:09.969Z,102746.19
2023-04-17T05:36:39.926Z,102755.22
2023-04-17T05:39:09.964Z,102758.88
2023-04-17T05:41:43.308Z,102758.06
2023-04-17T05:44:13.191Z,102758.97
2023-04-17T05:46:42.992Z,102762.81
2023-04-17T05:49:13.024Z,102760.13
2023-04-17T05:51:42.948Z,102763.75
2023-04-17T05:54:12.804Z,102762.25
2023-04-17T05:56:45.283Z,102766.81
2023-04-17T05:59:15.136Z,102768.63
2023-04-17T06:01:44.932Z,102772.19
2023-04-17T06:04:18.067Z,102770.56
2023-04-17T06:06:48.391Z,102775.91
2023-04-17T06:09:18.658Z,102780.34
2023-04-17T06:11:51.195Z,102774.31
2023-04-17T06:14:22.544Z,102782.41
2023-04-17T06:16:52.393Z,102783.22
2023-04-17T06:19:22.631Z,102781.50
2023-04-17T06:21:52.566Z,102787.88
2023-04-17T06:24:22.533Z,102786.16
2023-04-17T06:26:54.998Z,102782.81
2023-04-17T06:29:24.833Z,102790.81
2023-04-17T06:31:54.712Z,102792.53
2023-04-17T06:34:31.450Z,102786.47
2023-04-17T06:37:01.893Z,102792.75
2023-04-17T06:39:32.793Z,102790.13
2023-04-17T06:42:06.568Z,102796.19
2023-04-17T06:44:36.906Z,102796.28
2023-04-17T06:47:07.131Z,102797.31
2023-04-17T06:49:36.997Z,102807.94
2023-04-17T06:52:07.329Z,102804.41
2023-04-17T06:54:37.179Z,102804.50
2023-04-17T06:57:10.991Z,102803.09
2023-04-17T06:59:41.368Z,102812.00
2023-04-17T07:02:11.488Z,102798.28
2023-04-17T07:04:41.406Z,102808.19
2023-04-17T07:07:12.184Z,102806.47
2023-04-17T07:09:43.193Z,102817.50
2023-04-17T07:12:15.603Z,102818.75
2023-04-17T07:14:46.156Z,102834.75
2023-04-17T07:17:15.971Z,102826.03
2023-04-17T07:19:45.793Z,102828.78
2023-04-17T07:22:16.022Z,102838.28
2023-04-17T07:24:46.089Z,102840.91
2023-04-17T07:27:18.565Z,102847.97
2023-04-17T07:29:54.806Z,102840.19
2023-04-17T07:32:27.169Z,102842.34
2023-04-17T07:34:57.476Z,102852.28
2023-04-17T07:37:27.314Z,102850.34
2023-04-17T07:39:57.150Z,102845.09
2023-04-17T07:42:29.599Z,102848.63
2023-04-17T07:45:00.189Z,102855.69
2023-04-17T07:47:31.211Z,102846.91
2023-04-17T07:50:01.135Z,102843.88
2023-04-17T07:52:31.207Z,102847.63
2023-04-17T07:55:01.208Z,102850.50
2023-04-17T07:57:35.920Z,102847.88
2023-04-17T08:00:08.095Z,102843.31
2023-04-17T08:02:38.144Z,102853.81
2023-04-17T08:05:09.513Z,102848.78
2023-04-17T08:07:41.192Z,102851.50
2023-04-17T08:10:12.002Z,102849.78
2023-04-17T08:12:44.446Z,102856.84
2023-04-17T08:15:14.923Z,102858.91
2023-04-17T08:17:48.562Z,102855.56
2023-04-17T08:20:18.936Z,102853.56
2023-04-17T08:22:50.112Z,102856.13
2023-04-17T08:25:19.970Z,102863.03
2023-04-17T08:27:52.919Z,102861.00
2023-04-17T08:30:23.042Z,102872.00
2023-04-17T08:32:55.689Z,102875.59
2023-04-17T08:35:26.832Z,102885.66
2023-04-17T08:37:59.030Z,102882.31
2023-04-17T08:40:29.172Z,102878.47
2023-04-17T08:43:04.612Z,102886.25
2023-04-17T08:45:38.459Z,102879.06
2023-04-17T08:48:09.021Z,102873.59
2023-04-17T08:50:39.657Z,102878.66
2023-04-17T08:53:09.536Z,102871.44
2023-04-17T08:55:39.495Z,102882.88
2023-04-17T08:58:35.685Z,102875.88
2023-04-17T09:01:16.033Z,102880.47
2023-04-17T09:03:47.237Z,102894.44
2023-04-17T09:06:18.355Z,102888.91
2023-04-17T09:08:59.488Z,102888.13
2023-04-17T09:11:30.699Z,102888.91
2023-04-17T09:14:03.217Z,102877.59
2023-04-17T09:16:34.407Z,102884.31
2023-04-17T09:19:09.139Z,102882.91
2023-04-17T09:21:39.081Z,102878.97
2023-04-17T09:24:10.306Z,102869.75
2023-04-17T09:26:40.162Z,102868.56
2023-04-17T09:29:14.980Z,102870.16
2023-04-17T09:31:46.536Z,102871.56
2023-04-17T09:34:18.033Z,102866.91
2023-04-17T09:36:48.728Z,102865.88
2023-04-17T09:39:24.689Z,102867.78
2023-04-17T09:42:06.404Z,102872.19
2023-04-17T09:44:40.581Z,102875.09
2023-04-17T09:47:12.763Z,102879.34
2023-04-17T09:49:43.661Z,102872.09
2023-04-17T09:52:14.600Z,102874.31
2023-04-17T09:54:46.546Z,102872.88
2023-04-17T09:57:16.813Z,102880.34
2023-04-17T09:59:51.003Z,102878.97
2023-04-17T10:02:23.007Z,102870.56
2023-04-17T10:04:52.957Z,102872.00
2023-04-17T10:07:22.939Z,102872.47
2023-04-17T10:09:52.781Z,102878.69
2023-04-17T10:12:24.149Z,102881.97
2023-04-17T10:14:57.632Z,102878.75
2023-04-17T10:17:31.900Z,102889.16
2023-04-17T10:20:36.185Z,102879.94
2023-04-17T10:23:32.992Z,102875.78
2023-04-17T10:26:38.920Z,102882.97
2023-04-17T10:29:08.905Z,102879.22
2023-04-17T10:32:09.097Z,102884.03
2023-04-17T10:34:43.704Z,102883.31
2023-04-17T10:37:15.670Z,102876.97
2023-04-17T10:39:54.544Z,102876.13
2023-04-17T10:42:25.975Z,102876.47
2023-04-17T10:45:05.647Z,102869.09
2023-04-17T10:47:36.735Z,102875.63
2023-04-17T10:50:12.536Z,102879.34
2023-04-17T10:52:47.817Z,102871.53
2023-04-17T10:55:20.949Z,102881.81
2023-04-17T10:58:04.965Z,102877.59
2023-04-17T11:00:38.751Z,102892.72
2023-04-17T11:03:10.027Z,102889.13
2023-04-17T11:05:48.299Z,102882.00
2023-04-17T11:08:18.394Z,102877.72
2023-04-17T11:10:48.278Z,102885.81
2023-04-17T11:13:18.144Z,102885.06
2023-04-17T11:15:48.010Z,102884.34
2023-04-17T11:18:18.654Z,102890.72
2023-04-17T11:20:51.466Z,102889.97
2023-04-17T11:23:22.003Z,102887.13
2023-04-17T11:25:51.856Z,102886.34
2023-04-17T11:28:21.672Z,102889.97
2023-04-17T11:30:52.422Z,102893.44
2023-04-17T11:33:22.395Z,102883.13
2023-04-17T11:35:57.081Z,102893.97
2023-04-17T11:38:26.892Z,102887.50
2023-04-17T11:40:59.233Z,102889.41
2023-04-17T11:43:30.328Z,102892.22
2023-04-17T11:46:02.144Z,102897.59
2023-04-17T11:48:33.268Z,102897.06
2023-04-17T11:51:08.894Z,102894.56
2023-04-17T11:53:39.174Z,102889.84
2023-04-17T11:56:16.988Z,102887.09
2023-04-17T11:58:51.759Z,102881.91
2023-04-17T12:01:24.968Z,102883.47
2023-04-17T12:03:56.285Z,102881.81
2023-04-17T12:06:38.847Z,102882.56
2023-04-17T12:09:09.500Z,102881.81
2023-04-17T12:11:40.088Z,102882.00
2023-04-17T12:14:12.499Z,102888.38
2023-04-17T12:16:42.607Z,102883.84
2023-04-17T12:19:13.488Z,102877.09
2023-04-17T12:21:46.999Z,102883.34
2023-04-17T12:24:21.392Z,102878.81
2023-04-17T12:26:52.685Z,102879.97
2023-04-17T12:29:36.162Z,102878.19
2023-04-17T12:32:13.252Z,102879.91
2023-04-17T12:34:44.879Z,102875.53
2023-04-17T12:37:17.338Z,102875.06
2023-04-17T12:39:47.494Z,102875.25
2023-04-17T12:42:17.334Z,102870.97
2023-04-17T12:44:48.494Z,102879.22
2023-04-17T12:47:18.709Z,102881.47
2023-04-17T12:49:48.611Z,102876.47
2023-04-17T12:52:21.108Z,102869.69
2023-04-17T12:54:51.366Z,102870.88
2023-04-17T12:57:21.292Z,102877.47
2023-04-17T12:59:51.158Z,102876.03
2023-04-17T13:02:23.311Z,102875.56
2023-04-17T13:04:53.787Z,102876.72
2023-04-17T13:07:26.941Z,102869.59
2023-04-17T13:09:56.759Z,102867.38
2023-04-17T13:12:26.715Z,102867.88
2023-04-17T13:14:57.810Z,102867.28
2023-04-17T13:17:28.034Z,102863.88
2023-04-17T13:19:57.859Z,102877.31
2023-04-17T13:22:30.355Z,102863.13
2023-04-17T13:25:00.159Z,102866.72
2023-04-17T13:27:30.090Z,102870.16
2023-04-17T13:29:59.961Z,102876.38
2023-04-17T13:32:33.831Z,102872.56
2023-04-17T13:35:05.347Z,102864.41
2023-04-17T13:37:37.806Z,102864.63
2023-04-17T13:40:10.312Z,102855.31
2023-04-17T13:42:40.657Z,102852.25
2023-04-17T13:45:11.648Z,102842.47
2023-04-17T13:47:41.561Z,102843.56
2023-04-17T13:50:13.178Z,102839.50
2023-04-17T13:52:45.580Z,102840.41
2023-04-17T13:55:17.490Z,102840.47
2023-04-17T13:57:47.333Z,102840.63
2023-04-17T14:00:18.604Z,102842.47
2023-04-17T14:02:48.506Z,102832.69
2023-04-17T14:05:18.644Z,102829.25
2023-04-17T14:07:51.154Z,102833.69
2023-04-17T14:10:21.189Z,102833.94
2023-04-17T14:12:51.126Z,102823.41
2023-04-17T14:15:21.367Z,102826.91
2023-04-17T14:17:51.175Z,102821.84
2023-04-17T14:20:21.201Z,102816.81
2023-04-17T14:22:54.681Z,102823.38
2023-04-17T14:25:24.519Z,102820.06
2023-04-17T14:27:54.520Z,102813.03
2023-04-17T14:30:24.484Z,102811.19
2023-04-17T14:32:54.356Z,102819.88
2023-04-17T14:35:24.770Z,102817.94
2023-04-17T14:37:58.713Z,102815.16
2023-04-17T14:40:28.567Z,102820.19
2023-04-17T14:42:58.371Z,102815.41
2023-04-17T14:45:28.323Z,102821.22
2023-04-17T14:47:58.251Z,102815.78
2023-04-17T14:50:31.184Z,102819.78
2023-04-17T14:53:04.450Z,102817.44
2023-04-17T14:55:34.778Z,102820.44
2023-04-17T14:58:04.607Z,102821.03
2023-04-17T15:00:34.902Z,102809.44
2023-04-17T15:03:04.905Z,102813.78
2023-04-17T15:05:34.778Z,102819.72
2023-04-17T15:08:07.485Z,102821.31
2023-04-17T15:10:50.344Z,102816.41
2023-04-17T15:13:21.137Z,102820.25
2023-04-17T15:15:51.274Z,102812.91
2023-04-17T15:18:21.099Z,102816.03
2023-04-17T15:20:51.235Z,102820.31
2023-04-17T15:23:25.568Z,102810.59
2023-04-17T15:25:57.779Z,102814.97
2023-04-17T15:28:27.894Z,102815.03
2023-04-17T15:30:59.297Z,102822.16
2023-04-17T15:33:29.195Z,102824.84
2023-04-17T15:36:00.185Z,102815.03
2023-04-17T15:38:32.723Z,102810.16
2023-04-17T15:41:03.769Z,102822.69
2023-04-17T15:43:33.941Z,102819.03
2023-04-17T15:46:03.848Z,102813.94
2023-04-17T15:48:33.733Z,102818.47
2023-04-17T15:51:09.106Z,102816.66
2023-04-17T15:53:41.826Z,102817.31
2023-04-17T15:56:11.684Z,102816.72
2023-04-17T15:58:41.473Z,102810.38
2023-04-17T16:01:11.362Z,102817.28
2023-04-17T16:03:43.666Z,102814.47
2023-04-17T16:06:13.996Z,102814.84
2023-04-17T16:08:46.412Z,102812.03
2023-04-17T16:11:16.294Z,102816.97
2023-04-17T16:13:46.184Z,102806.16
2023-04-17T16:16:16.104Z,102810.25
2023-04-17T16:18:48.649Z,102812.06
2023-04-17T16:21:18.586Z,102801.34
2023-04-17T16:23:51.020Z,102805.63
2023-04-17T16:26:21.048Z,102809.09
2023-04-17T16:28:50.854Z,102807.25
2023-04-17T16:31:21.517Z,102816.06
2023-04-17T16:33:51.457Z,102807.06
2023-04-17T16:36:21.281Z,102812.09
2023-04-17T16:38:53.741Z,102813.66
2023-04-17T16:41:23.584Z,102823.03
2023-04-17T16:43:53.408Z,102809.44
2023-04-17T16:48:58.905Z,102809.28
2023-04-17T16:51:28.755Z,102821.28
2023-04-17T16:54:01.230Z,102807.94
2023-04-17T16:56:31.044Z,102810.38
2023-04-17T16:59:00.836Z,102818.75
2023-04-17T17:01:32.366Z,102815.00
2023-04-17T17:04:02.529Z,102818.16
2023-04-17T17:06:32.376Z,102808.03
2023-04-17T17:09:04.835Z,102810.59
2023-04-17T17:11:34.684Z,102810.41
2023-04-17T17:14:04.523Z,102818.13
2023-04-17T17:16:34.342Z,102818.78
2023-04-17T17:19:04.205Z,102830.84
2023-04-17T17:21:34.025Z,102821.84
2023-04-17T17:24:09.084Z,102838.38
2023-04-17T17:26:39.008Z,102828.28
2023-04-17T17:29:08.851Z,102833.13
2023-04-17T17:31:38.759Z,102827.50
2023-04-17T17:36:45.668Z,102837.09
2023-04-17T17:39:18.114Z,102836.91
2023-04-17T17:41:47.938Z,102835.69
2023-04-17T17:44:17.827Z,102825.66
2023-04-17T17:46:47.752Z,102830.72
2023-04-17T17:49:17.673Z,102825.38
2023-04-17T17:51:47.496Z,102832.34
2023-04-17T17:54:19.976Z,102835.09
2023-04-17T17:56:49.803Z,102840.38
2023-04-17T17:59:19.864Z,102831.44
2023-04-17T18:01:49.995Z,102840.06
2023-04-17T18:04:20.504Z,102830.16
2023-04-17T18:06:50.841Z,102837.06
2023-04-17T18:09:23.349Z,102828.84
2023-04-17T18:11:53.378Z,102835.75
2023-04-17T18:14:23.415Z,102835.53
2023-04-17T18:16:53.360Z,102835.34
2023-04-17T18:19:23.245Z,102837.88
2023-04-17T18:21:53.101Z,102836.16
2023-04-17T18:24:33.107Z,102833.44
2023-04-17T18:27:03.903Z,102832.50
2023-04-17T18:29:33.918Z,102833.13
2023-04-17T18:32:04.608Z,102839.19
2023-04-17T18:34:34.495Z,102837.56
2023-04-17T18:37:07.460Z,102834.84
2023-04-17T18:39:39.899Z,102838.09
2023-04-17T18:42:09.740Z,102832.72
2023-04-17T18:44:39.641Z,102824.63
2023-04-17T18:47:09.676Z,102841.13
2023-04-17T18:49:39.522Z,102829.69
2023-04-17T18:52:09.398Z,102838.41
2023-04-17T18:54:41.838Z,102839.31
2023-04-17T18:57:11.747Z,102846.19
2023-04-17T18:59:43.125Z,102850.53
2023-04-17T19:02:13.233Z,102848.72
2023-04-17T19:04:43.106Z,102856.53
2023-04-17T19:07:12.925Z,102849.41
2023-04-17T19:09:45.372Z,102857.22
2023-04-17T19:12:15.341Z,102854.28
2023-04-17T19:14:45.157Z,102864.88
2023-04-17T19:17:18.499Z,102861.28
2023-04-17T19:19:48.310Z,102867.44
2023-04-17T19:22:18.825Z,102868.34
2023-04-17T19:24:53.177Z,102860.66
2023-04-17T19:27:24.484Z,102865.00
2023-04-17T19:29:55.605Z,102879.06
2023-04-17T19:32:30.492Z,102865.91
2023-04-17T19:35:05.476Z,102869.56
2023-04-17T19:37:35.326Z,102866.03
2023-04-17T19:40:21.571Z,102871.41
2023-04-17T19:42:54.528Z,102877.66
2023-04-17T19:45:24.504Z,102885.53
2023-04-17T19:47:57.237Z,102890.00
2023-04-17T19:50:28.424Z,102896.06
2023-04-17T19:52:59.249Z,102890.81
2023-04-17T19:55:31.781Z,102903.88
2023-04-17T19:58:03.152Z,102894.84
2023-04-17T20:00:33.392Z,102905.19
2023-04-17T20:03:03.413Z,102906.69
2023-04-17T20:05:34.932Z,102902.16
2023-04-17T20:08:04.945Z,102902.16
2023-04-17T20:10:37.428Z,102907.28
2023-04-17T20:13:07.297Z,102911.53
2023-04-17T20:15:37.297Z,102922.06
2023-04-17T20:18:09.449Z,102915.78
2023-04-17T20:20:40.317Z,102917.50
2023-04-17T20:23:10.146Z,102912.03
2023-04-17T20:25:42.680Z,102913.59
2023-04-17T20:28:12.622Z,102918.88
2023-04-17T20:30:42.516Z,102926.69
2023-04-17T20:33:14.884Z,102925.75
2023-04-17T20:35:44.965Z,102918.66
2023-04-17T20:38:17.869Z,102925.53
2023-04-17T20:40:50.417Z,102934.25
2023-04-17T20:43:20.338Z,102927.13
2023-04-17T20:45:50.314Z,102918.97
2023-04-17T20:48:20.351Z,102923.28
2023-04-17T20:50:50.205Z,102924.88
2023-04-17T20:53:20.007Z,102934.50
2023-04-17T20:55:52.461Z,102929.75
2023-04-17T20:58:22.345Z,102937.41
2023-04-17T21:01:00.805Z,102931.84
2023-04-17T21:03:32.111Z,102941.31
2023-04-17T21:06:05.258Z,102943.63
2023-04-17T21:08:35.079Z,102935.53
2023-04-17T21:11:07.804Z,102937.97
2023-04-17T21:13:37.767Z,102950.06
2023-04-17T21:16:12.892Z,102937.63
2023-04-17T21:18:43.130Z,102939.22
2023-04-17T21:21:13.019Z,102943.38
2023-04-17T21:23:42.873Z,102940.53
2023-04-17T21:26:15.346Z,102940.22
2023-04-17T21:28:50.347Z,102944.31
2023-04-17T21:31:20.225Z,102937.13
2023-04-17T21:33:51.031Z,102941.25
2023-04-17T21:36:22.797Z,102939.22
2023-04-17T21:38:52.689Z,102942.66
2023-04-17T21:41:25.242Z,102951.34
2023-04-17T21:43:55.192Z,102945.06
2023-04-17T21:46:25.211Z,102957.16
2023-04-17T21:48:58.432Z,102956.16
2023-04-17T21:51:28.318Z,102962.22
2023-04-17T21:53:58.190Z,102956.03
2023-04-17T21:56:31.129Z,102954.00
2023-04-17T21:59:01.352Z,102958.09
2023-04-17T22:01:31.610Z,102957.88
2023-04-17T22:04:01.595Z,102955.84
2023-04-17T22:06:31.572Z,102957.31
2023-04-17T22:09:01.664Z,102964.97
2023-04-17T22:11:34.175Z,102962.16
2023-04-17T22:14:04.066Z,102960.22
2023-04-17T22:16:36.247Z,102960.91
2023-04-17T22:19:06.408Z,102956.91
2023-04-17T22:21:36.331Z,102958.50
2023-04-17T22:24:06.415Z,102960.91
2023-04-17T22:26:38.942Z,102965.94
2023-04-17T22:29:08.825Z,102959.41
2023-04-17T22:31:40.636Z,102957.25
2023-04-17T22:34:10.620Z,102963.19
2023-04-17T22:36:40.649Z,102967.16
2023-04-17T22:39:10.615Z,102956.22
2023-04-17T22:41:43.980Z,102964.66
2023-04-17T22:44:14.225Z,102953.69
2023-04-17T22:46:44.532Z,102966.47
2023-04-17T22:49:14.833Z,102965.09
2023-04-17T22:51:53.254Z,102960.19
2023-04-17T22:54:24.154Z,102964.19
2023-04-17T22:56:57.128Z,102962.06
2023-04-17T22:59:27.292Z,102957.63
2023-04-17T23:01:57.574Z,102959.22
2023-04-17T23:04:28.142Z,102954.88
2023-04-17T23:06:58.072Z,102963.78
2023-04-17T23:09:27.957Z,102955.00
2023-04-17T23:12:00.548Z,102962.97
2023-04-17T23:14:30.477Z,102951.06
2023-04-17T23:17:00.329Z,102954.94
2023-04-17T23:19:30.509Z,102955.16
2023-04-17T23:22:01.430Z,102963.25
2023-04-17T23:24:36.116Z,102955.53
2023-04-17T23:27:08.592Z,102959.41
2023-04-17T23:29:38.509Z,102953.47
2023-04-17T23:32:09.850Z,102965.22
2023-04-17T23:34:41.236Z,102953.94
2023-04-17T23:37:11.206Z,102956.69
2023-04-17T23:39:41.021Z,102948.13
2023-04-17T23:42:14.268Z,102948.13
2023-04-17T23:44:44.160Z,102950.84
2023-04-17T23:47:16.413Z,102957.94
2023-04-17T23:49:47.688Z,102956.22
2023-04-17T23:52:19.141Z,102952.69
2023-04-17T23:54:48.989Z,102948.13
2023-04-17T23:57:21.467Z,102950.63
2023-04-17T23:59:51.533Z,102955.78
